Johnstown, Ohio
Current Conditions -  °F | °C
As of 2:51 PM on Wednesday 28 Jan 2015 (Local Time) from KCMH Reporting Station
Broken Clouds Broken Clouds  
Wind Chill: -4°   Ceiling: 20000
Heat Index: -4°   Visibility: 10mi
Dew Point: -11°   Wind: 3mph
Humidity: 60%   Direction: 140°SE
Pressure: 30.31"   Gusts: NA
Location:  40.15°N, 82.69°W
Report Text: KCMH 281951Z 14003KT 10SM BKN200 M04/M11 A3031 RMK AO2 SLP279 T10391106
Loading
Personal Weather Stations






























Interactive Weather Map New forecast layout! Learn more

10-Day Weather Forecast

Advertisements
Track Severe Weather on mobile